South River, Missouri
Current Conditions -  °F | °C
As of 10:15 PM on Friday 24 Oct 2014 (Local Time) from KHAE Reporting Station
Broken Clouds Broken Clouds  
Wind Chill: 63°   Ceiling: 4700
Heat Index: 63°   Visibility: 10mi
Dew Point: 57°   Wind: 5mph
Humidity: 82%   Direction: 210°SSW
Pressure: 29.98"   Gusts: NA
Location:  39.7865°N, 91.559°W
Report Text: KHAE 250315Z AUTO 21004KT 10SM BKN047 17/14 A2998 RMK AO2
Loading
Personal Weather Stations






























Interactive Weather Map New forecast layout! Learn more

10-Day Weather Forecast

Advertisements
Track Severe Weather on mobile